Time;durP1;ratioP1;P1;durP2;ratioP2;P2;SDS_P1;SDS_P2;PMS_P1;PMS_P2;Temp;Humidity;BMP_temperature;BMP_pressure;BME280_temperature;BME280_humidity;BME280_pressure;Samples;Min_cycle;Max_cycle;Signal;HPM_P1;HPM_P2
2021/06/09 00:00:51;;;;;;;9.90;6.25;;;20.80;65.10;;;;;;5051852;28;20029;-88
2021/06/09 00:03:18;;;;;;;10.27;7.43;;;20.80;65.20;;;;;;5054864;28;20034;-87
2021/06/09 00:05:45;;;;;;;10.43;7.07;;;20.80;65.30;;;;;;5038797;28;20385;-87
2021/06/09 00:08:11;;;;;;;13.45;7.68;;;20.80;65.50;;;;;;5056225;28;20036;-86
2021/06/09 00:10:37;;;;;;;9.27;7.32;;;20.70;65.60;;;;;;5055924;28;20029;-88
2021/06/09 00:13:03;;;;;;;9.70;6.97;;;20.70;65.80;;;;;;5038773;28;20029;-87
2021/06/09 00:15:29;;;;;;;8.93;6.95;;;20.60;66.10;;;;;;5055185;28;20124;-89
2021/06/09 00:17:55;;;;;;;10.68;7.55;;;20.60;66.30;;;;;;5055125;28;20025;-88
2021/06/09 00:20:25;;;;;;;9.15;7.38;;;20.60;66.50;;;;;;5056191;28;20457;-88
2021/06/09 00:22:50;;;;;;;10.10;7.53;;;20.50;66.70;;;;;;5054784;28;20476;-87
2021/06/09 00:25:17;;;;;;;11.02;7.22;;;20.50;66.80;;;;;;5038413;28;20094;-87
2021/06/09 00:27:45;;;;;;;12.48;8.13;;;20.50;67.10;;;;;;5056611;28;20115;-87
2021/06/09 00:30:13;;;;;;;9.77;7.65;;;20.40;67.30;;;;;;5054859;28;20028;-88
2021/06/09 00:32:39;;;;;;;10.20;7.53;;;20.40;67.50;;;;;;5055887;28;20048;-88
2021/06/09 00:35:05;;;;;;;9.82;7.60;;;20.40;67.80;;;;;;5038121;28;20451;-87
2021/06/09 00:37:31;;;;;;;9.77;7.47;;;20.30;68.00;;;;;;5054512;28;20108;-87
2021/06/09 00:39:56;;;;;;;10.93;7.32;;;20.30;68.30;;;;;;5054479;28;20053;-88
2021/06/09 00:42:22;;;;;;;12.82;8.43;;;20.30;68.60;;;;;;5054462;28;20037;-87
2021/06/09 00:44:49;;;;;;;10.43;7.53;;;20.20;69.40;;;;;;5054820;28;20033;-88
2021/06/09 00:47:22;;;;;;;12.65;8.77;;;20.20;69.00;;;;;;5055794;28;20028;-87
2021/06/09 00:49:51;;;;;;;11.10;8.18;;;20.20;69.30;;;;;;5055529;28;20025;-88
2021/06/09 00:52:25;;;;;;;10.20;7.63;;;20.10;69.30;;;;;;5037912;28;20048;-88
2021/06/09 00:54:52;;;;;;;10.43;7.65;;;20.10;69.60;;;;;;5055468;28;20535;-86
2021/06/09 00:57:18;;;;;;;11.98;7.65;;;20.00;69.70;;;;;;5054521;28;20056;-88
2021/06/09 00:59:44;;;;;;;12.27;8.15;;;20.00;70.00;;;;;;5054834;28;20029;-88
2021/06/09 01:02:10;;;;;;;12.30;7.53;;;20.00;70.20;;;;;;5054445;28;20033;-87
2021/06/09 01:04:36;;;;;;;11.18;8.23;;;20.00;70.70;;;;;;5055572;28;20025;-87
2021/06/09 01:07:03;;;;;;;11.60;9.00;;;19.90;71.40;;;;;;5053695;28;20033;-88
2021/06/09 01:09:30;;;;;;;10.88;8.07;;;19.90;72.10;;;;;;5053967;28;20032;-88
2021/06/09 01:11:56;;;;;;;13.18;8.90;;;19.90;72.60;;;;;;5053947;28;20025;-88
2021/06/09 01:14:23;;;;;;;10.13;8.43;;;19.90;73.10;;;;;;5053618;28;20484;-87
2021/06/09 01:16:50;;;;;;;12.00;8.20;;;19.80;73.60;;;;;;5053931;28;20021;-87
2021/06/09 01:19:18;;;;;;;10.93;8.35;;;19.80;73.90;;;;;;5037081;28;20032;-87
2021/06/09 01:21:45;;;;;;;11.55;8.32;;;19.80;74.30;;;;;;5053792;28;20025;-88
2021/06/09 01:24:11;;;;;;;9.98;7.80;;;19.70;74.50;;;;;;5037020;28;20048;-87
2021/06/09 01:26:38;;;;;;;10.27;7.97;;;19.70;74.90;;;;;;5054098;28;20029;-88
2021/06/09 01:29:06;;;;;;;12.60;9.75;;;19.60;75.20;;;;;;5053498;28;20036;-87
2021/06/09 01:31:32;;;;;;;12.82;9.30;;;19.70;75.60;;;;;;5037031;28;20087;-86
2021/06/09 01:34:05;;;;;;;13.60;9.52;;;19.60;75.80;;;;;;5053325;28;20077;-87
2021/06/09 01:36:35;;;;;;;12.35;9.35;;;19.60;75.90;;;;;;5053330;28;20124;-88
2021/06/09 01:39:13;;;;;;;13.38;9.90;;;19.60;76.00;;;;;;5053799;28;20033;-88
2021/06/09 01:41:50;;;;;;;14.93;9.80;;;19.50;76.30;;;;;;5054776;28;20029;-87
2021/06/09 01:44:16;;;;;;;10.95;8.45;;;19.50;76.60;;;;;;5053336;28;20094;-87
2021/06/09 01:46:42;;;;;;;10.10;8.57;;;19.50;76.60;;;;;;5053314;28;20022;-87
2021/06/09 01:49:10;;;;;;;19.83;9.93;;;19.50;76.60;;;;;;5053697;28;20377;-87
2021/06/09 01:51:36;;;;;;;13.68;9.32;;;19.40;76.30;;;;;;5036491;28;20025;-86
2021/06/09 01:54:07;;;;;;;9.82;7.80;;;19.40;76.50;;;;;;5057821;28;20029;-87
2021/06/09 01:56:33;;;;;;;10.43;8.07;;;19.40;76.90;;;;;;5055891;28;20027;-87
2021/06/09 01:59:12;;;;;;;11.43;8.10;;;19.30;77.00;;;;;;5037650;28;20029;-88
2021/06/09 02:01:38;;;;;;;10.52;7.60;;;19.30;77.10;;;;;;5054663;28;20028;-88
2021/06/09 02:04:04;;;;;;;10.63;7.60;;;19.30;77.00;;;;;;5053216;28;20045;-87
2021/06/09 02:06:30;;;;;;;11.95;8.30;;;19.30;77.00;;;;;;5054141;28;20025;-87
2021/06/09 02:08:55;;;;;;;12.85;8.60;;;19.20;76.90;;;;;;5052520;28;20027;-87
2021/06/09 02:11:21;;;;;;;10.95;8.45;;;19.10;76.90;;;;;;5052739;28;20036;-87
2021/06/09 02:13:47;;;;;;;11.32;8.65;;;19.10;76.90;;;;;;5052768;28;20436;-86
2021/06/09 02:16:14;;;;;;;11.15;8.65;;;19.10;76.90;;;;;;5052658;28;20063;-87
2021/06/09 02:18:40;;;;;;;10.95;8.50;;;19.10;77.00;;;;;;5036414;28;20025;-86
2021/06/09 02:21:06;;;;;;;11.90;8.77;;;19.10;77.00;;;;;;5052545;28;20492;-87
2021/06/09 02:23:35;;;;;;;12.25;8.90;;;19.00;77.10;;;;;;5035734;28;20037;-85
2021/06/09 02:26:01;;;;;;;11.93;9.00;;;19.00;78.00;;;;;;5053007;28;20116;-85
2021/06/09 02:28:30;;;;;;;12.32;9.23;;;19.00;77.80;;;;;;5052383;28;20032;-87
2021/06/09 02:30:56;;;;;;;11.60;9.30;;;18.90;78.10;;;;;;5052291;28;20024;-87
2021/06/09 02:33:24;;;;;;;12.77;9.23;;;18.90;78.40;;;;;;5053965;28;20057;-86
2021/06/09 02:35:51;;;;;;;12.00;8.50;;;18.90;78.70;;;;;;5035419;28;20029;-86
2021/06/09 02:38:19;;;;;;;9.95;8.25;;;18.90;78.90;;;;;;5052095;28;20492;-86
2021/06/09 02:40:48;;;;;;;11.15;8.85;;;18.80;79.00;;;;;;5036027;28;20443;-87
2021/06/09 02:43:14;;;;;;;11.77;8.55;;;18.90;79.20;;;;;;5053116;28;20119;-86
2021/06/09 02:45:45;;;;;;;10.60;8.02;;;18.80;79.00;;;;;;5035977;28;20122;-87
2021/06/09 02:48:14;;;;;;;13.70;8.40;;;18.80;79.00;;;;;;5052083;28;20071;-87
2021/06/09 02:50:40;;;;;;;11.30;8.30;;;18.80;78.90;;;;;;5053333;28;20029;-86
2021/06/09 02:53:11;;;;;;;11.45;9.13;;;18.70;78.90;;;;;;5051823;28;20556;-87
2021/06/09 02:56:03;;;;;;;11.07;8.35;;;18.70;78.90;;;;;;5052296;28;20032;-86
2021/06/09 02:58:50;;;;;;;13.43;8.68;;;18.70;79.70;;;;;;5053371;28;20499;-86
2021/06/09 03:01:40;;;;;;;11.98;8.90;;;18.70;79.10;;;;;;5051799;28;20037;-86
2021/06/09 03:04:22;;;;;;;11.02;8.90;;;18.70;79.10;;;;;;5053363;28;20044;-87
2021/06/09 03:07:18;;;;;;;10.82;8.80;;;18.60;79.10;;;;;;5052763;28;20044;-87
2021/06/09 03:10:04;;;;;;;12.10;8.60;;;18.60;79.20;;;;;;5052954;28;20052;-86
2021/06/09 03:12:48;;;;;;;13.88;9.32;;;18.60;79.30;;;;;;5052124;28;20399;-85
2021/06/09 03:15:23;;;;;;;13.48;9.05;;;18.50;79.30;;;;;;5053408;28;20028;-86
2021/06/09 03:17:59;;;;;;;13.70;9.77;;;18.50;79.40;;;;;;5052771;28;20055;-86
2021/06/09 03:20:40;;;;;;;12.57;8.75;;;18.50;79.40;;;;;;5053267;28;20032;-85
2021/06/09 03:23:31;;;;;;;12.80;8.85;;;18.40;79.70;;;;;;5051672;28;20041;-86
2021/06/09 03:26:07;;;;;;;12.27;9.30;;;18.40;79.80;;;;;;5051793;28;20029;-86
2021/06/09 03:28:40;;;;;;;16.58;9.90;;;18.40;79.80;;;;;;5052729;28;20021;-86
2021/06/09 03:31:09;;;;;;;13.10;9.15;;;18.40;80.00;;;;;;5053363;28;20449;-87
2021/06/09 03:33:41;;;;;;;12.98;9.82;;;18.40;80.10;;;;;;5052879;28;20056;-86
2021/06/09 03:36:10;;;;;;;12.02;9.32;;;18.30;80.20;;;;;;5053533;28;20461;-85
2021/06/09 03:38:48;;;;;;;13.15;9.98;;;18.40;80.50;;;;;;5055602;28;20033;-85
2021/06/09 03:41:14;;;;;;;12.68;10.05;;;18.40;80.90;;;;;;5055536;28;20036;-86
2021/06/09 03:43:46;;;;;;;13.05;10.38;;;18.30;81.20;;;;;;5056664;28;20045;-86
2021/06/09 03:46:14;;;;;;;13.68;10.93;;;18.30;81.70;;;;;;5055174;28;20075;-86
2021/06/09 03:48:43;;;;;;;14.63;11.13;;;18.30;82.10;;;;;;5055119;28;20461;-86
2021/06/09 03:51:13;;;;;;;17.00;11.30;;;18.30;82.40;;;;;;5038673;28;20116;-85
2021/06/09 03:53:41;;;;;;;12.57;10.32;;;18.30;82.70;;;;;;5039205;28;20044;-86
2021/06/09 03:56:09;;;;;;;14.68;10.63;;;18.30;82.90;;;;;;5055402;28;20162;-85
2021/06/09 03:58:35;;;;;;;12.35;9.50;;;18.30;83.00;;;;;;5056305;28;20087;-85
2021/06/09 04:01:02;;;;;;;13.05;9.55;;;18.30;83.10;;;;;;5036628;28;20017;-83
2021/06/09 04:03:29;;;;;;;12.43;9.57;;;18.30;83.10;;;;;;5054110;28;20056;-86
2021/06/09 04:05:56;;;;;;;12.95;10.38;;;18.30;83.20;;;;;;5036801;28;20547;-85
2021/06/09 04:08:23;;;;;;;14.52;10.70;;;18.40;83.40;;;;;;5055312;28;20346;-86
2021/06/09 04:10:51;;;;;;;14.52;11.52;;;18.40;83.60;;;;;;5055036;28;20079;-86
2021/06/09 04:13:17;;;;;;;14.65;11.07;;;18.40;83.80;;;;;;5054473;28;20040;-85
2021/06/09 04:15:45;;;;;;;15.02;10.57;;;18.40;83.90;;;;;;5053997;28;20112;-86
2021/06/09 04:18:11;;;;;;;11.90;9.52;;;18.40;84.00;;;;;;5055957;28;20033;-86
2021/06/09 04:20:39;;;;;;;12.38;9.75;;;18.40;84.00;;;;;;5054804;28;20032;-86
2021/06/09 04:23:05;;;;;;;14.63;10.00;;;18.40;83.90;;;;;;5056207;28;20045;-86
2021/06/09 04:25:31;;;;;;;14.70;9.60;;;18.40;83.90;;;;;;5054345;28;20036;-86
2021/06/09 04:27:58;;;;;;;17.15;10.70;;;18.40;83.80;;;;;;5056108;28;20024;-85
2021/06/09 04:30:23;;;;;;;12.38;9.98;;;18.40;83.80;;;;;;5038715;28;20087;-85
2021/06/09 04:33:01;;;;;;;14.07;10.85;;;18.50;83.80;;;;;;5037732;28;20472;-85
2021/06/09 04:35:42;;;;;;;14.75;12.13;;;18.50;83.80;;;;;;5038804;28;20090;-86
2021/06/09 04:38:20;;;;;;;14.73;11.23;;;18.50;83.80;;;;;;5056183;28;20369;-86
2021/06/09 04:40:49;;;;;;;12.45;10.18;;;18.50;83.80;;;;;;5055833;28;20444;-86
2021/06/09 04:43:15;;;;;;;13.30;11.20;;;18.60;83.80;;;;;;5054301;28;20131;-85
2021/06/09 04:45:40;;;;;;;14.82;12.07;;;18.60;83.80;;;;;;5037807;28;20025;-85
2021/06/09 04:48:14;;;;;;;16.15;13.27;;;18.60;83.90;;;;;;5053829;28;20465;-86
2021/06/09 04:50:41;;;;;;;16.90;12.55;;;18.60;83.90;;;;;;5053964;28;20025;-86
2021/06/09 04:53:11;;;;;;;16.63;13.85;;;18.60;83.70;;;;;;5037926;28;20461;-86
2021/06/09 04:55:51;;;;;;;18.08;13.50;;;18.70;83.70;;;;;;5055295;28;20024;-85
2021/06/09 04:58:19;;;;;;;19.63;13.18;;;18.70;83.70;;;;;;5054040;28;20032;-86
2021/06/09 05:00:47;;;;;;;19.08;13.48;;;18.70;83.60;;;;;;5055339;28;20036;-86
2021/06/09 05:03:13;;;;;;;18.48;14.23;;;18.80;83.60;;;;;;5053955;28;20473;-85
2021/06/09 05:05:39;;;;;;;17.27;14.75;;;18.80;83.70;;;;;;5053751;28;20119;-85
2021/06/09 05:08:05;;;;;;;18.83;15.70;;;18.80;83.60;;;;;;5053786;28;20033;-86
2021/06/09 05:10:34;;;;;;;19.40;15.98;;;18.90;83.50;;;;;;5050763;28;20487;-85
2021/06/09 05:13:22;;;;;;;20.95;16.35;;;18.90;83.40;;;;;;5001633;28;20045;-86
2021/06/09 05:15:54;;;;;;;18.75;15.35;;;18.90;83.40;;;;;;5034391;28;20028;-85
2021/06/09 05:18:26;;;;;;;19.15;15.80;;;19.00;83.40;;;;;;5032789;28;20029;-86
2021/06/09 05:20:53;;;;;;;21.00;16.52;;;19.00;83.30;;;;;;5035117;28;20339;-86
2021/06/09 05:23:28;;;;;;;24.33;17.35;;;19.10;83.20;;;;;;5014127;28;20065;-85
2021/06/09 05:25:56;;;;;;;20.30;17.80;;;19.10;83.10;;;;;;5052204;28;20029;-86
2021/06/09 05:28:25;;;;;;;23.20;17.52;;;19.10;83.00;;;;;;5051903;28;20021;-85
2021/06/09 05:30:54;;;;;;;21.40;17.55;;;19.20;83.10;;;;;;5054215;28;20465;-85
2021/06/09 05:33:21;;;;;;;22.58;17.85;;;19.20;83.00;;;;;;5053042;28;20057;-86
2021/06/09 05:35:48;;;;;;;26.20;19.83;;;19.30;82.90;;;;;;5050362;28;20025;-87
2021/06/09 05:38:16;;;;;;;22.98;19.52;;;19.40;82.90;;;;;;5035577;28;20067;-85
2021/06/09 05:40:42;;;;;;;23.73;19.65;;;19.40;82.70;;;;;;5032395;28;20088;-86
2021/06/09 05:43:08;;;;;;;22.23;19.17;;;19.50;82.60;;;;;;5015934;28;20038;-84
2021/06/09 05:45:35;;;;;;;23.33;20.83;;;19.50;82.50;;;;;;5032367;28;20033;-86
2021/06/09 05:48:01;;;;;;;24.85;20.75;;;19.50;82.30;;;;;;5032893;28;20029;-86
2021/06/09 05:50:32;;;;;;;24.52;20.27;;;19.60;82.40;;;;;;5016322;28;20099;-86
2021/06/09 05:53:04;;;;;;;24.52;19.52;;;19.60;82.20;;;;;;5034728;28;20464;-86
2021/06/09 05:55:32;;;;;;;22.08;19.67;;;19.70;82.10;;;;;;5033054;28;20109;-86
2021/06/09 05:58:02;;;;;;;24.45;21.15;;;19.70;81.90;;;;;;5034245;28;20052;-85
2021/06/09 06:00:29;;;;;;;25.65;20.75;;;19.70;81.70;;;;;;5033139;28;20083;-86
2021/06/09 06:02:55;;;;;;;26.58;21.15;;;19.80;81.60;;;;;;5034051;28;20504;-84
2021/06/09 06:05:22;;;;;;;24.52;21.08;;;19.80;81.40;;;;;;5032594;28;20029;-86
2021/06/09 06:07:48;;;;;;;24.52;20.90;;;19.90;81.40;;;;;;5032517;28;20033;-85
2021/06/09 06:10:15;;;;;;;25.08;21.95;;;19.90;81.30;;;;;;5032757;28;20076;-86
2021/06/09 06:12:42;;;;;;;28.13;21.48;;;20.00;81.30;;;;;;5032797;28;20056;-87
2021/06/09 06:15:11;;;;;;;27.33;22.58;;;20.00;81.20;;;;;;5034049;28;20029;-86
2021/06/09 06:17:44;;;;;;;28.00;22.52;;;20.10;81.10;;;;;;5016136;28;20021;-86
2021/06/09 06:20:18;;;;;;;28.88;22.88;;;20.10;81.00;;;;;;5032178;28;20075;-86
2021/06/09 06:22:46;;;;;;;25.15;22.48;;;20.20;80.80;;;;;;5033887;28;20036;-87
2021/06/09 06:25:17;;;;;;;27.08;24.00;;;20.20;80.50;;;;;;5032150;28;20021;-86
2021/06/09 06:27:47;;;;;;;25.92;22.35;;;20.30;80.30;;;;;;5032118;28;20018;-85
2021/06/09 06:30:18;;;;;;;30.70;24.13;;;20.30;80.10;;;;;;5016150;28;20120;-86
2021/06/09 06:32:47;;;;;;;27.80;23.50;;;20.40;79.90;;;;;;5033283;28;20030;-86
2021/06/09 06:35:14;;;;;;;26.45;22.45;;;20.40;79.80;;;;;;5033641;28;20080;-87
2021/06/09 06:37:42;;;;;;;25.30;22.58;;;20.40;79.60;;;;;;5031712;28;20017;-86
2021/06/09 06:40:09;;;;;;;32.33;22.77;;;20.50;79.60;;;;;;5033382;28;20413;-86
2021/06/09 06:42:34;;;;;;;26.13;22.48;;;20.50;79.50;;;;;;5033591;28;20385;-86
2021/06/09 06:45:01;;;;;;;26.83;23.73;;;20.60;79.40;;;;;;5015468;28;20036;-86
2021/06/09 06:47:28;;;;;;;26.90;23.20;;;20.60;79.20;;;;;;5032189;28;20093;-86
2021/06/09 06:49:56;;;;;;;28.38;23.42;;;20.70;79.10;;;;;;5033442;28;20033;-85
2021/06/09 06:52:22;;;;;;;27.17;22.98;;;20.70;79.00;;;;;;5016111;28;20029;-86
2021/06/09 06:54:48;;;;;;;25.30;21.92;;;20.70;79.00;;;;;;5031842;28;20033;-87
2021/06/09 06:57:14;;;;;;;26.75;23.88;;;20.70;79.10;;;;;;5015217;28;20030;-86
2021/06/09 06:59:40;;;;;;;25.08;22.42;;;20.80;79.20;;;;;;5033240;28;20022;-85
2021/06/09 07:02:07;;;;;;;26.08;22.85;;;20.90;79.20;;;;;;5032231;28;20030;-87
2021/06/09 07:04:33;;;;;;;27.85;21.45;;;20.90;79.20;;;;;;5031626;28;20040;-87
2021/06/09 07:06:59;;;;;;;24.77;22.17;;;21.00;79.30;;;;;;5031608;28;20144;-86
2021/06/09 07:09:25;;;;;;;26.35;23.45;;;21.00;79.10;;;;;;5032384;28;20030;-85
2021/06/09 07:11:52;;;;;;;25.60;22.70;;;21.10;78.90;;;;;;5018396;28;20097;-86
2021/06/09 07:14:23;;;;;;;25.17;21.55;;;21.20;78.80;;;;;;5036202;28;20036;-87
2021/06/09 07:16:49;;;;;;;25.00;22.23;;;21.10;78.70;;;;;;5037803;28;20057;-87
2021/06/09 07:19:17;;;;;;;27.35;22.05;;;21.20;78.80;;;;;;5037426;28;20115;-86
2021/06/09 07:21:43;;;;;;;23.48;21.00;;;21.30;78.80;;;;;;5035296;28;20022;-86
2021/06/09 07:24:09;;;;;;;24.05;21.48;;;21.40;78.70;;;;;;5035607;28;20044;-86
2021/06/09 07:26:40;;;;;;;23.73;21.20;;;21.50;78.30;;;;;;5019428;28;20026;-85
2021/06/09 07:29:08;;;;;;;23.25;20.77;;;21.60;78.10;;;;;;5037084;28;20454;-87
2021/06/09 07:31:36;;;;;;;23.27;20.80;;;21.60;77.80;;;;;;5035768;28;20022;-87
2021/06/09 07:34:05;;;;;;;23.38;20.77;;;21.70;77.60;;;;;;5036841;28;20056;-87
2021/06/09 07:36:47;;;;;;;24.17;21.67;;;21.70;77.20;;;;;;5035304;28;20385;-86
2021/06/09 07:39:38;;;;;;;24.00;21.00;;;21.80;77.10;;;;;;5036908;28;20028;-87
2021/06/09 07:42:07;;;;;;;22.33;19.58;;;21.90;77.00;;;;;;5030961;28;20037;-86
2021/06/09 07:44:37;;;;;;;21.73;19.42;;;21.90;76.80;;;;;;5035607;28;20033;-86
2021/06/09 07:47:07;;;;;;;21.58;17.98;;;22.00;76.30;;;;;;5035619;28;20109;-87
2021/06/09 07:49:34;;;;;;;23.40;19.05;;;22.00;75.70;;;;;;5036757;28;20033;-87
2021/06/09 07:52:01;;;;;;;19.88;17.88;;;22.10;75.40;;;;;;5035664;28;20116;-85
2021/06/09 07:54:27;;;;;;;22.17;19.02;;;22.10;75.10;;;;;;5035762;28;20026;-88
2021/06/09 07:56:55;;;;;;;21.17;18.92;;;22.10;75.00;;;;;;5035579;28;20029;-88
2021/06/09 07:59:21;;;;;;;21.15;17.98;;;22.20;74.80;;;;;;5019107;28;20041;-87
2021/06/09 08:01:47;;;;;;;20.20;17.90;;;22.20;74.30;;;;;;5036653;28;20085;-88
2021/06/09 08:04:15;;;;;;;19.90;17.80;;;22.30;74.00;;;;;;5035479;28;20034;-88
2021/06/09 08:06:43;;;;;;;21.48;16.98;;;22.30;73.70;;;;;;5035456;28;20045;-88
2021/06/09 08:09:09;;;;;;;21.30;18.20;;;22.40;73.20;;;;;;5018696;28;20029;-87
2021/06/09 08:11:36;;;;;;;20.35;16.92;;;22.40;72.90;;;;;;5035030;28;20025;-87
2021/06/09 08:14:03;;;;;;;19.55;17.45;;;22.50;72.60;;;;;;5035601;28;20116;-88
2021/06/09 08:16:32;;;;;;;21.77;19.38;;;22.50;72.20;;;;;;5036120;28;20462;-86
2021/06/09 08:19:03;;;;;;;22.52;20.05;;;22.60;71.60;;;;;;5035678;28;20504;-87
2021/06/09 08:21:28;;;;;;;19.10;17.15;;;22.70;71.20;;;;;;5035522;28;20021;-87
2021/06/09 08:23:54;;;;;;;20.98;16.35;;;22.80;70.80;;;;;;5017766;28;20039;-86
2021/06/09 08:26:23;;;;;;;19.17;15.35;;;22.80;70.30;;;;;;5036013;28;20026;-87
2021/06/09 08:28:50;;;;;;;16.10;14.40;;;22.90;69.70;;;;;;5036744;28;20021;-86
2021/06/09 08:31:19;;;;;;;16.83;15.05;;;22.90;69.20;;;;;;5034937;28;20079;-87
2021/06/09 08:33:47;;;;;;;15.25;13.65;;;23.00;68.90;;;;;;5036473;28;20051;-89
2021/06/09 08:36:14;;;;;;;14.75;13.20;;;23.10;68.60;;;;;;5034636;28;20064;-87
2021/06/09 08:38:41;;;;;;;17.02;12.95;;;23.10;68.00;;;;;;5034947;28;20022;-87
2021/06/09 08:41:09;;;;;;;17.98;15.00;;;23.20;67.50;;;;;;5034488;28;20071;-87
2021/06/09 08:43:37;;;;;;;16.02;14.35;;;23.20;67.00;;;;;;5035961;28;20049;-87
2021/06/09 08:46:04;;;;;;;15.48;12.95;;;23.20;66.80;;;;;;5034713;28;20160;-87
2021/06/09 08:48:33;;;;;;;14.88;12.85;;;23.30;66.40;;;;;;5018497;28;20028;-87
2021/06/09 08:50:59;;;;;;;15.23;12.55;;;23.30;66.10;;;;;;5040205;28;20108;-87
2021/06/09 08:53:25;;;;;;;15.18;13.35;;;23.30;65.80;;;;;;5048539;28;20532;-86
2021/06/09 08:55:51;;;;;;;15.73;12.25;;;23.40;65.60;;;;;;5038045;28;20146;-87
2021/06/09 08:58:17;;;;;;;16.88;13.00;;;23.40;65.40;;;;;;5054878;28;20025;-85
2021/06/09 09:00:45;;;;;;;16.60;14.75;;;23.50;65.50;;;;;;5021284;28;20057;-87
2021/06/09 09:03:11;;;;;;;17.95;15.70;;;23.50;65.70;;;;;;5054967;28;20048;-87
2021/06/09 09:05:37;;;;;;;18.25;15.52;;;23.60;65.80;;;;;;5061395;28;20053;-86
2021/06/09 09:08:04;;;;;;;17.80;14.40;;;23.70;65.70;;;;;;5039338;28;20366;-85
2021/06/09 09:10:31;;;;;;;17.20;15.27;;;23.70;65.40;;;;;;5055577;28;20032;-86
2021/06/09 09:12:56;;;;;;;13.40;11.65;;;23.80;65.40;;;;;;5055367;28;20032;-86
2021/06/09 09:15:23;;;;;;;14.60;13.07;;;23.80;65.20;;;;;;5053883;28;20032;-87
2021/06/09 09:18:03;;;;;;;15.50;13.23;;;23.90;65.00;;;;;;5032537;28;20029;-86
2021/06/09 09:20:30;;;;;;;18.05;13.98;;;24.00;64.70;;;;;;5034121;28;20442;-88
2021/06/09 09:22:58;;;;;;;16.40;13.95;;;24.00;64.50;;;;;;5033938;28;20673;-87
2021/06/09 09:25:26;;;;;;;12.18;10.23;;;24.10;64.20;;;;;;5034724;28;20048;-88
2021/06/09 09:27:59;;;;;;;14.07;12.57;;;24.10;64.00;;;;;;5050894;28;20028;-87
2021/06/09 09:30:31;;;;;;;18.73;12.82;;;24.20;63.70;;;;;;5034003;28;20024;-88
2021/06/09 09:33:15;;;;;;;13.63;12.23;;;24.30;63.40;;;;;;5033421;28;20036;-86
2021/06/09 09:35:43;;;;;;;15.88;10.70;;;24.30;63.00;;;;;;5033377;28;20457;-88
2021/06/09 09:38:11;;;;;;;14.25;12.55;;;24.40;62.60;;;;;;5033825;28;20040;-87
2021/06/09 09:40:37;;;;;;;11.85;10.60;;;24.40;61.80;;;;;;5033423;28;20049;-87
2021/06/09 09:43:03;;;;;;;14.20;12.70;;;24.50;61.60;;;;;;5017185;28;20136;-84
2021/06/09 09:45:32;;;;;;;16.98;10.95;;;24.50;61.20;;;;;;5034632;28;20025;-87
2021/06/09 09:48:03;;;;;;;14.32;12.18;;;24.60;60.70;;;;;;5034982;28;20021;-87
2021/06/09 09:50:51;;;;;;;12.93;10.32;;;24.60;60.30;;;;;;5049229;28;20033;-86
2021/06/09 09:53:22;;;;;;;14.13;11.95;;;24.70;60.00;;;;;;5020501;28;20370;-87
2021/06/09 09:56:10;;;;;;;20.50;13.93;;;24.70;59.90;;;;;;5041630;28;20032;-88
2021/06/09 09:58:38;;;;;;;14.63;11.05;;;24.80;59.30;;;;;;5052579;28;20112;-86
2021/06/09 10:01:11;;;;;;;13.10;10.50;;;24.90;59.30;;;;;;5045127;28;20017;-86
2021/06/09 10:03:39;;;;;;;14.43;12.05;;;25.00;59.60;;;;;;5042886;28;20033;-85
2021/06/09 10:06:34;;;;;;;14.48;11.05;;;25.00;58.70;;;;;;5027104;28;20021;-87
2021/06/09 10:09:22;;;;;;;13.43;9.32;;;25.20;58.30;;;;;;5041674;28;20064;-86
2021/06/09 10:11:52;;;;;;;11.27;9.15;;;25.30;58.00;;;;;;5048938;28;20472;-86
2021/06/09 10:14:25;;;;;;;11.10;9.93;;;25.40;57.80;;;;;;5042980;28;20017;-85
2021/06/09 10:17:10;;;;;;;12.43;8.23;;;25.40;57.30;;;;;;5049477;28;20021;-87
2021/06/09 10:19:39;;;;;;;11.35;8.05;;;25.60;56.80;;;;;;5051279;28;20393;-88
2021/06/09 10:22:10;;;;;;;14.02;10.40;;;25.60;56.00;;;;;;5049740;28;20025;-85
2021/06/09 10:24:55;;;;;;;11.70;8.75;;;25.70;55.20;;;;;;5033705;28;20045;-88
2021/06/09 10:27:47;;;;;;;9.43;7.65;;;25.70;55.10;;;;;;5042664;28;20112;-88
2021/06/09 10:30:19;;;;;;;10.55;8.25;;;25.80;54.60;;;;;;5034904;28;20120;-87
2021/06/09 10:32:47;;;;;;;11.05;8.43;;;25.90;54.50;;;;;;5035203;28;20025;-86
2021/06/09 10:35:13;;;;;;;10.02;7.70;;;25.90;54.20;;;;;;5032296;28;20080;-87
2021/06/09 10:37:39;;;;;;;12.32;9.57;;;26.00;54.00;;;;;;5032308;28;20029;-87
2021/06/09 10:40:06;;;;;;;10.02;7.68;;;26.10;53.50;;;;;;5048821;28;20083;-87
2021/06/09 10:42:33;;;;;;;10.45;6.13;;;26.20;53.10;;;;;;5032297;28;20052;-85
2021/06/09 10:45:00;;;;;;;10.15;7.30;;;26.40;53.00;;;;;;5032229;28;20037;-87
2021/06/09 10:47:33;;;;;;;10.27;8.15;;;26.50;52.60;;;;;;5048484;28;20032;-87
2021/06/09 10:50:00;;;;;;;9.70;7.97;;;26.70;52.00;;;;;;5032774;28;20615;-91
2021/06/09 10:52:26;;;;;;;9.48;8.05;;;26.80;51.90;;;;;;5032727;28;20029;-88
2021/06/09 10:54:53;;;;;;;12.20;9.52;;;27.00;52.00;;;;;;5048988;28;20013;-87
2021/06/09 10:57:19;;;;;;;10.02;8.52;;;27.30;52.00;;;;;;5049038;28;20110;-85
2021/06/09 10:59:45;;;;;;;13.07;9.60;;;27.30;52.10;;;;;;5031939;28;20465;-88
2021/06/09 11:02:18;;;;;;;13.07;9.57;;;27.30;51.70;;;;;;5052418;28;20052;-87
2021/06/09 11:04:46;;;;;;;10.15;8.25;;;27.40;51.30;;;;;;5051948;28;20135;-86
2021/06/09 11:07:41;;;;;;;9.50;7.53;;;27.40;51.30;;;;;;5051678;28;20021;-86
2021/06/09 11:10:08;;;;;;;8.30;6.90;;;27.60;50.80;;;;;;5035171;28;20033;-86
2021/06/09 11:12:42;;;;;;;10.88;7.60;;;27.70;50.80;;;;;;5050573;28;20110;-87
2021/06/09 11:15:13;;;;;;;10.38;7.68;;;27.90;50.40;;;;;;5052577;28;20025;-88
2021/06/09 11:17:54;;;;;;;11.27;7.47;;;28.20;50.10;;;;;;5052361;28;20025;-87
2021/06/09 11:20:22;;;;;;;9.90;6.80;;;28.20;49.20;;;;;;5052019;28;20032;-87
2021/06/09 11:22:59;;;;;;;9.60;8.20;;;28.20;49.10;;;;;;5052137;28;20120;-86
2021/06/09 11:25:45;;;;;;;10.68;9.10;;;28.20;49.70;;;;;;5053662;28;20029;-86
2021/06/09 11:28:31;;;;;;;9.68;7.60;;;28.40;48.80;;;;;;5039839;28;20028;-87
2021/06/09 11:31:14;;;;;;;8.35;6.30;;;28.50;48.30;;;;;;5054283;28;20036;-86
2021/06/09 11:33:41;;;;;;;8.83;7.27;;;28.70;47.90;;;;;;5051449;28;20045;-87
2021/06/09 11:36:43;;;;;;;9.05;7.03;;;28.80;47.90;;;;;;5052628;28;20282;-88
2021/06/09 11:39:18;;;;;;;8.80;7.47;;;29.00;47.20;;;;;;5052884;28;20358;-88
2021/06/09 11:41:45;;;;;;;10.02;7.68;;;29.20;47.30;;;;;;5052984;28;20025;-88
2021/06/09 11:44:31;;;;;;;9.63;7.30;;;29.40;47.20;;;;;;5051603;28;20033;-87
2021/06/09 11:47:21;;;;;;;8.70;6.93;;;29.50;46.50;;;;;;5052954;28;20033;-87
2021/06/09 11:49:49;;;;;;;8.60;7.53;;;29.70;46.30;;;;;;5051883;28;20013;-90
2021/06/09 11:52:15;;;;;;;11.60;7.93;;;29.90;46.50;;;;;;5035445;28;20466;-88
2021/06/09 11:54:41;;;;;;;9.15;6.18;;;30.10;45.90;;;;;;5035098;28;20381;-90
2021/06/09 11:57:13;;;;;;;10.85;6.55;;;30.20;45.60;;;;;;5053651;28;20028;-86
2021/06/09 11:59:41;;;;;;;11.88;5.00;;;30.30;45.10;;;;;;5056694;28;20115;-87
2021/06/09 12:02:10;;;;;;;7.32;5.65;;;30.50;44.90;;;;;;5056225;28;20029;-87
2021/06/09 12:04:41;;;;;;;8.10;5.03;;;30.70;44.20;;;;;;5046876;28;20446;-88
2021/06/09 12:07:18;;;;;;;6.38;4.82;;;30.70;43.40;;;;;;5053654;28;20017;-87
2021/06/09 12:09:44;;;;;;;6.75;4.95;;;30.80;43.60;;;;;;5047485;28;20029;-87
2021/06/09 12:12:27;;;;;;;7.75;5.38;;;31.00;43.30;;;;;;5056418;28;20507;-88
2021/06/09 12:14:54;;;;;;;7.20;5.05;;;31.10;42.60;;;;;;5048838;28;20060;-86
2021/06/09 12:17:37;;;;;;;7.68;4.78;;;31.30;42.60;;;;;;5055987;28;20037;-87
2021/06/09 12:20:09;;;;;;;6.60;4.35;;;31.40;42.10;;;;;;5055238;28;20025;-89
2021/06/09 12:22:40;;;;;;;6.82;4.47;;;31.60;41.60;;;;;;5054895;28;20033;-92
2021/06/09 12:25:07;;;;;;;7.18;4.35;;;31.80;41.50;;;;;;5055214;28;20021;-89
2021/06/09 12:27:35;;;;;;;6.60;5.35;;;32.00;40.60;;;;;;5056260;28;20025;-88
2021/06/09 12:30:03;;;;;;;5.28;3.70;;;32.10;40.50;;;;;;5054469;28;20021;-87
2021/06/09 12:32:32;;;;;;;6.30;4.00;;;32.30;40.60;;;;;;5038590;28;20476;-87
2021/06/09 12:35:07;;;;;;;6.60;4.40;;;32.40;40.50;;;;;;5055556;28;20131;-87
2021/06/09 12:37:36;;;;;;;7.72;5.45;;;32.60;40.00;;;;;;5056366;28;20465;-88
2021/06/09 12:40:10;;;;;;;5.05;4.13;;;32.70;39.80;;;;;;5054996;28;20075;-88
2021/06/09 12:42:38;;;;;;;8.13;4.85;;;32.90;39.50;;;;;;5051014;28;20017;-87
2021/06/09 12:45:09;;;;;;;6.78;4.47;;;33.00;39.30;;;;;;5052933;28;20021;-86
2021/06/09 12:47:37;;;;;;;5.65;3.88;;;33.10;39.00;;;;;;5054489;28;20041;-87